sensor_id;sensor_type;location;lat;lon;timestamp;pressure;altitude;pressure_sealevel;temperature;humidity
54306;BME280;66145;45.188;5.712;2023-04-06T00:00:08;99444.50;;;20.34;41.57
54306;BME280;66145;45.188;5.712;2023-04-06T00:02:35;99444.66;;;20.38;41.70
54306;BME280;66145;45.188;5.712;2023-04-06T00:05:00;99466.16;;;20.44;41.52
54306;BME280;66145;45.188;5.712;2023-04-06T00:07:26;99437.19;;;20.20;41.43
54306;BME280;66145;45.188;5.712;2023-04-06T00:09:53;99450.63;;;20.31;41.66
54306;BME280;66145;45.188;5.712;2023-04-06T00:12:18;99449.63;;;20.27;41.64
54306;BME280;66145;45.188;5.712;2023-04-06T00:14:43;99457.38;;;20.25;41.91
54306;BME280;66145;45.188;5.712;2023-04-06T00:17:09;99451.59;;;20.26;41.40
54306;BME280;66145;45.188;5.712;2023-04-06T00:19:35;99465.81;;;20.28;41.94
54306;BME280;66145;45.188;5.712;2023-04-06T00:22:00;99441.69;;;20.16;41.82
54306;BME280;66145;45.188;5.712;2023-04-06T00:24:27;99396.06;;;19.89;41.38
54306;BME280;66145;45.188;5.712;2023-04-06T00:26:52;99466.94;;;20.36;41.52
54306;BME280;66145;45.188;5.712;2023-04-06T00:29:17;99469.53;;;20.41;41.59
54306;BME280;66145;45.188;5.712;2023-04-06T00:31:43;99462.13;;;20.42;41.63
54306;BME280;66145;45.188;5.712;2023-04-06T00:34:09;99415.50;;;20.10;41.62
54306;BME280;66145;45.188;5.712;2023-04-06T00:36:35;99392.06;;;19.95;41.77
54306;BME280;66145;45.188;5.712;2023-04-06T00:39:00;99443.16;;;20.23;41.67
54306;BME280;66145;45.188;5.712;2023-04-06T00:41:26;99449.00;;;20.30;41.59
54306;BME280;66145;45.188;5.712;2023-04-06T00:43:53;99418.63;;;20.35;41.35
54306;BME280;66145;45.188;5.712;2023-04-06T00:46:18;99455.84;;;20.67;41.18
54306;BME280;66145;45.188;5.712;2023-04-06T00:48:44;99403.44;;;20.38;41.08
54306;BME280;66145;45.188;5.712;2023-04-06T00:51:09;99448.44;;;20.77;40.83
54306;BME280;66145;45.188;5.712;2023-04-06T00:53:35;99430.47;;;20.71;40.81
54306;BME280;66145;45.188;5.712;2023-04-06T00:56:00;99450.22;;;20.90;40.64
54306;BME280;66145;45.188;5.712;2023-04-06T00:58:25;99416.38;;;20.72;40.75
54306;BME280;66145;45.188;5.712;2023-04-06T01:00:51;99443.59;;;21.00;40.66
54306;BME280;66145;45.188;5.712;2023-04-06T01:03:16;99440.84;;;21.00;40.12
54306;BME280;66145;45.188;5.712;2023-04-06T01:05:41;99378.22;;;20.71;40.42
54306;BME280;66145;45.188;5.712;2023-04-06T01:08:07;99412.22;;;20.92;40.32
54306;BME280;66145;45.188;5.712;2023-04-06T01:10:33;99430.78;;;21.04;40.58
54306;BME280;66145;45.188;5.712;2023-04-06T01:12:58;99431.09;;;21.11;40.25
54306;BME280;66145;45.188;5.712;2023-04-06T01:15:24;99427.53;;;21.02;40.55
54306;BME280;66145;45.188;5.712;2023-04-06T01:17:50;99411.38;;;20.92;40.55
54306;BME280;66145;45.188;5.712;2023-04-06T01:20:16;99440.00;;;21.00;40.31
54306;BME280;66145;45.188;5.712;2023-04-06T01:22:41;99410.75;;;20.86;40.45
54306;BME280;66145;45.188;5.712;2023-04-06T01:25:07;99404.13;;;20.87;40.52
54306;BME280;66145;45.188;5.712;2023-04-06T01:27:33;99417.84;;;21.05;40.41
54306;BME280;66145;45.188;5.712;2023-04-06T01:29:58;99422.84;;;21.11;40.46
54306;BME280;66145;45.188;5.712;2023-04-06T01:32:24;99424.78;;;21.11;40.39
54306;BME280;66145;45.188;5.712;2023-04-06T01:34:49;99436.44;;;21.25;40.24
54306;BME280;66145;45.188;5.712;2023-04-06T01:37:15;99438.34;;;21.25;40.04
54306;BME280;66145;45.188;5.712;2023-04-06T01:39:44;99437.56;;;21.24;40.17
54306;BME280;66145;45.188;5.712;2023-04-06T01:42:09;99443.22;;;21.28;40.28
54306;BME280;66145;45.188;5.712;2023-04-06T01:44:35;99434.63;;;21.30;40.15
54306;BME280;66145;45.188;5.712;2023-04-06T01:47:00;99404.59;;;21.07;40.26
54306;BME280;66145;45.188;5.712;2023-04-06T01:49:26;99384.88;;;20.87;40.42
54306;BME280;66145;45.188;5.712;2023-04-06T01:51:51;99409.28;;;20.97;40.60
54306;BME280;66145;45.188;5.712;2023-04-06T01:54:19;99397.97;;;20.90;40.57
54306;BME280;66145;45.188;5.712;2023-04-06T01:56:44;99420.25;;;21.06;40.45
54306;BME280;66145;45.188;5.712;2023-04-06T01:59:10;99362.09;;;20.69;40.64
54306;BME280;66145;45.188;5.712;2023-04-06T02:01:36;99405.22;;;21.04;40.44
54306;BME280;66145;45.188;5.712;2023-04-06T02:04:01;99443.06;;;21.24;40.39
54306;BME280;66145;45.188;5.712;2023-04-06T02:06:26;99434.97;;;21.28;40.15
54306;BME280;66145;45.188;5.712;2023-04-06T02:08:52;99439.34;;;21.29;40.08
54306;BME280;66145;45.188;5.712;2023-04-06T02:11:17;99365.16;;;20.85;40.27
54306;BME280;66145;45.188;5.712;2023-04-06T02:13:43;99427.84;;;21.27;40.03
54306;BME280;66145;45.188;5.712;2023-04-06T02:16:08;99438.50;;;21.37;40.04
54306;BME280;66145;45.188;5.712;2023-04-06T02:18:34;99442.72;;;21.35;39.91
54306;BME280;66145;45.188;5.712;2023-04-06T02:20:59;99439.34;;;21.29;39.96
54306;BME280;66145;45.188;5.712;2023-04-06T02:23:25;99432.38;;;21.23;40.21
54306;BME280;66145;45.188;5.712;2023-04-06T02:25:51;99438.34;;;21.25;40.19
54306;BME280;66145;45.188;5.712;2023-04-06T02:28:17;99409.41;;;21.10;40.16
54306;BME280;66145;45.188;5.712;2023-04-06T02:30:42;99433.22;;;21.15;40.31
54306;BME280;66145;45.188;5.712;2023-04-06T02:33:07;99409.91;;;21.12;40.10
54306;BME280;66145;45.188;5.712;2023-04-06T02:35:33;99437.84;;;21.32;40.02
54306;BME280;66145;45.188;5.712;2023-04-06T02:37:58;99367.75;;;20.81;40.37
54306;BME280;66145;45.188;5.712;2023-04-06T02:40:23;99400.84;;;21.11;39.81
54306;BME280;66145;45.188;5.712;2023-04-06T02:42:49;99431.81;;;21.47;39.68
54306;BME280;66145;45.188;5.712;2023-04-06T02:45:14;99424.72;;;21.46;39.66
54306;BME280;66145;45.188;5.712;2023-04-06T02:47:40;99439.09;;;21.52;39.76
54306;BME280;66145;45.188;5.712;2023-04-06T02:50:05;99430.38;;;21.50;39.71
54306;BME280;66145;45.188;5.712;2023-04-06T02:52:31;99438.47;;;21.46;39.97
54306;BME280;66145;45.188;5.712;2023-04-06T02:54:57;99394.38;;;21.07;39.71
54306;BME280;66145;45.188;5.712;2023-04-06T02:57:22;99406.97;;;21.17;40.06
54306;BME280;66145;45.188;5.712;2023-04-06T02:59:47;99441.56;;;21.36;40.14
54306;BME280;66145;45.188;5.712;2023-04-06T03:02:13;99434.94;;;21.37;39.96
54306;BME280;66145;45.188;5.712;2023-04-06T03:04:38;99436.56;;;21.38;39.84
54306;BME280;66145;45.188;5.712;2023-04-06T03:07:03;99411.19;;;21.23;39.74
54306;BME280;66145;45.188;5.712;2023-04-06T03:09:28;99412.81;;;21.24;39.70
54306;BME280;66145;45.188;5.712;2023-04-06T03:11:54;99444.94;;;21.50;39.63
54306;BME280;66145;45.188;5.712;2023-04-06T03:14:20;99437.03;;;21.49;39.70
54306;BME280;66145;45.188;5.712;2023-04-06T03:16:48;99427.31;;;21.42;39.50
54306;BME280;66145;45.188;5.712;2023-04-06T03:19:13;99450.94;;;21.61;39.58
54306;BME280;66145;45.188;5.712;2023-04-06T03:21:39;99443.28;;;21.58;39.46
54306;BME280;66145;45.188;5.712;2023-04-06T03:24:05;99448.81;;;21.58;39.28
54306;BME280;66145;45.188;5.712;2023-04-06T03:26:30;99454.31;;;21.58;39.53
54306;BME280;66145;45.188;5.712;2023-04-06T03:28:56;99450.94;;;21.52;39.62
54306;BME280;66145;45.188;5.712;2023-04-06T03:31:21;99418.59;;;21.32;39.77
54306;BME280;66145;45.188;5.712;2023-04-06T03:33:46;99452.88;;;21.43;39.87
54306;BME280;66145;45.188;5.712;2023-04-06T03:36:11;99423.13;;;21.36;39.67
54306;BME280;66145;45.188;5.712;2023-04-06T03:38:37;99432.03;;;21.33;39.48
54306;BME280;66145;45.188;5.712;2023-04-06T03:41:02;99436.22;;;21.39;39.70
54306;BME280;66145;45.188;5.712;2023-04-06T03:43:27;99448.81;;;21.49;39.61
54306;BME280;66145;45.188;5.712;2023-04-06T03:45:53;99424.25;;;21.35;39.58
54306;BME280;66145;45.188;5.712;2023-04-06T03:48:18;99354.47;;;21.01;39.40
54306;BME280;66145;45.188;5.712;2023-04-06T03:50:43;99451.41;;;21.63;39.27
54306;BME280;66145;45.188;5.712;2023-04-06T03:53:09;99438.91;;;21.57;39.45
54306;BME280;66145;45.188;5.712;2023-04-06T03:55:34;99454.97;;;21.64;39.34
54306;BME280;66145;45.188;5.712;2023-04-06T03:58:00;99448.81;;;21.58;39.45
54306;BME280;66145;45.188;5.712;2023-04-06T04:00:25;99432.66;;;21.48;39.37
54306;BME280;66145;45.188;5.712;2023-04-06T04:02:50;99443.81;;;21.42;39.41
54306;BME280;66145;45.188;5.712;2023-04-06T04:05:16;99418.75;;;21.26;39.55
54306;BME280;66145;45.188;5.712;2023-04-06T04:07:41;99435.91;;;21.41;39.37
54306;BME280;66145;45.188;5.712;2023-04-06T04:10:07;99434.44;;;21.43;39.40
54306;BME280;66145;45.188;5.712;2023-04-06T04:12:32;99454.47;;;21.62;39.13
54306;BME280;66145;45.188;5.712;2023-04-06T04:14:58;99459.66;;;21.63;39.26
54306;BME280;66145;45.188;5.712;2023-04-06T04:17:24;99479.56;;;21.69;39.20
54306;BME280;66145;45.188;5.712;2023-04-06T04:19:50;99461.28;;;21.55;39.31
54306;BME280;66145;45.188;5.712;2023-04-06T04:22:15;99407.97;;;21.12;39.36
54306;BME280;66145;45.188;5.712;2023-04-06T04:24:40;99475.03;;;21.55;39.64
54306;BME280;66145;45.188;5.712;2023-04-06T04:27:05;99472.47;;;21.50;39.48
54306;BME280;66145;45.188;5.712;2023-04-06T04:29:33;99450.31;;;21.38;39.51
54306;BME280;66145;45.188;5.712;2023-04-06T04:31:58;99483.59;;;21.54;39.44
54306;BME280;66145;45.188;5.712;2023-04-06T04:34:24;99462.25;;;21.42;39.53
54306;BME280;66145;45.188;5.712;2023-04-06T04:36:50;99425.44;;;21.17;39.41
54306;BME280;66145;45.188;5.712;2023-04-06T04:39:18;99462.75;;;21.44;39.36
54306;BME280;66145;45.188;5.712;2023-04-06T04:41:44;99483.78;;;21.57;39.42
54306;BME280;66145;45.188;5.712;2023-04-06T04:44:09;99485.72;;;21.57;39.21
54306;BME280;66145;45.188;5.712;2023-04-06T04:46:35;99485.25;;;21.64;39.33
54306;BME280;66145;45.188;5.712;2023-04-06T04:49:00;99495.09;;;21.73;39.25
54306;BME280;66145;45.188;5.712;2023-04-06T04:51:25;99474.69;;;21.57;39.19
54306;BME280;66145;45.188;5.712;2023-04-06T04:53:51;99473.22;;;21.60;39.17
54306;BME280;66145;45.188;5.712;2023-04-06T04:56:16;99457.72;;;21.46;39.32
54306;BME280;66145;45.188;5.712;2023-04-06T04:58:41;99488.31;;;21.62;39.12
54306;BME280;66145;45.188;5.712;2023-04-06T05:01:07;99493.84;;;21.62;39.10
54306;BME280;66145;45.188;5.712;2023-04-06T05:03:33;99421.72;;;21.12;39.26
54306;BME280;66145;45.188;5.712;2023-04-06T05:05:58;99514.88;;;21.67;39.19
54306;BME280;66145;45.188;5.712;2023-04-06T05:08:24;99505.97;;;21.61;39.25
54306;BME280;66145;45.188;5.712;2023-04-06T05:10:50;99499.13;;;21.58;39.03
54306;BME280;66145;45.188;5.712;2023-04-06T05:13:15;99473.28;;;21.42;39.10
54306;BME280;66145;45.188;5.712;2023-04-06T05:15:41;99519.22;;;21.77;38.93
54306;BME280;66145;45.188;5.712;2023-04-06T05:18:07;99509.19;;;21.72;38.66
54306;BME280;66145;45.188;5.712;2023-04-06T05:20:34;99477.47;;;21.48;38.90
54306;BME280;66145;45.188;5.712;2023-04-06T05:22:59;99480.56;;;21.55;39.03
54306;BME280;66145;45.188;5.712;2023-04-06T05:25:25;99510.78;;;21.82;38.78
54306;BME280;66145;45.188;5.712;2023-04-06T05:27:50;99512.53;;;21.86;38.55
54306;BME280;66145;45.188;5.712;2023-04-06T05:30:16;99524.97;;;21.93;38.80
54306;BME280;66145;45.188;5.712;2023-04-06T05:32:41;99517.22;;;21.86;38.66
54306;BME280;66145;45.188;5.712;2023-04-06T05:35:08;99522.91;;;21.90;38.62
54306;BME280;66145;45.188;5.712;2023-04-06T05:37:34;99535.81;;;21.98;38.65
54306;BME280;66145;45.188;5.712;2023-04-06T05:39:59;99527.59;;;21.89;38.79
54306;BME280;66145;45.188;5.712;2023-04-06T05:42:25;99489.47;;;21.61;38.76
54306;BME280;66145;45.188;5.712;2023-04-06T05:44:52;99543.31;;;21.88;38.80
54306;BME280;66145;45.188;5.712;2023-04-06T05:47:17;99515.50;;;21.72;38.79
54306;BME280;66145;45.188;5.712;2023-04-06T05:49:43;99535.91;;;21.54;39.46
54306;BME280;66145;45.188;5.712;2023-04-06T05:52:08;99501.31;;;21.18;39.28
54306;BME280;66145;45.188;5.712;2023-04-06T05:54:35;99544.16;;;21.71;38.51
54306;BME280;66145;45.188;5.712;2023-04-06T05:57:04;99479.59;;;21.42;38.27
54306;BME280;66145;45.188;5.712;2023-04-06T05:59:32;99541.03;;;21.91;38.40
54306;BME280;66145;45.188;5.712;2023-04-06T06:01:58;99548.31;;;21.95;38.22
54306;BME280;66145;45.188;5.712;2023-04-06T06:04:23;99533.09;;;21.89;38.16
54306;BME280;66145;45.188;5.712;2023-04-06T06:06:49;99556.06;;;22.02;38.29
54306;BME280;66145;45.188;5.712;2023-04-06T06:09:14;99485.56;;;21.62;38.36
54306;BME280;66145;45.188;5.712;2023-04-06T06:11:40;99547.94;;;22.06;38.22
54306;BME280;66145;45.188;5.712;2023-04-06T06:14:06;99522.09;;;21.89;38.12
54306;BME280;66145;45.188;5.712;2023-04-06T06:16:32;99551.03;;;22.04;38.40
54306;BME280;66145;45.188;5.712;2023-04-06T06:18:57;99535.72;;;21.85;38.48
54306;BME280;66145;45.188;5.712;2023-04-06T06:21:23;99525.84;;;21.76;38.48
54306;BME280;66145;45.188;5.712;2023-04-06T06:23:49;99547.53;;;21.86;38.71
54306;BME280;66145;45.188;5.712;2023-04-06T06:26:16;99545.09;;;21.84;38.54
54306;BME280;66145;45.188;5.712;2023-04-06T06:28:41;99517.97;;;21.65;38.68
54306;BME280;66145;45.188;5.712;2023-04-06T06:31:07;99534.88;;;21.85;38.48
54306;BME280;66145;45.188;5.712;2023-04-06T06:33:32;99533.94;;;21.81;38.62
54306;BME280;66145;45.188;5.712;2023-04-06T06:35:58;99529.41;;;21.76;38.77
54306;BME280;66145;45.188;5.712;2023-04-06T06:38:23;99545.88;;;21.94;38.53
54306;BME280;66145;45.188;5.712;2023-04-06T06:40:48;99545.06;;;22.02;38.47
54306;BME280;66145;45.188;5.712;2023-04-06T06:43:14;99514.81;;;21.84;38.37
54306;BME280;66145;45.188;5.712;2023-04-06T06:45:39;99545.84;;;22.02;38.13
54306;BME280;66145;45.188;5.712;2023-04-06T06:48:05;99515.94;;;21.83;38.69
54306;BME280;66145;45.188;5.712;2023-04-06T06:50:30;99524.03;;;21.88;38.54
54306;BME280;66145;45.188;5.712;2023-04-06T06:52:56;99536.97;;;21.97;38.74
54306;BME280;66145;45.188;5.712;2023-04-06T06:55:21;99481.59;;;21.16;39.86
54306;BME280;66145;45.188;5.712;2023-04-06T06:57:46;99538.38;;;21.29;40.17
54306;BME280;66145;45.188;5.712;2023-04-06T07:00:13;99529.63;;;21.18;39.62
54306;BME280;66145;45.188;5.712;2023-04-06T07:02:39;99477.66;;;20.73;39.33
54306;BME280;66145;45.188;5.712;2023-04-06T07:05:05;99503.91;;;20.96;39.12
54306;BME280;66145;45.188;5.712;2023-04-06T07:07:32;99461.31;;;20.67;39.07
54306;BME280;66145;45.188;5.712;2023-04-06T07:09:58;99539.84;;;21.18;38.32
54306;BME280;66145;45.188;5.712;2023-04-06T07:12:23;99507.63;;;20.92;38.11
54306;BME280;66145;45.188;5.712;2023-04-06T07:14:49;99501.31;;;20.91;38.42
54306;BME280;66145;45.188;5.712;2023-04-06T07:17:14;99514.09;;;21.05;38.29
54306;BME280;66145;45.188;5.712;2023-04-06T07:19:40;99508.13;;;20.94;38.30
54306;BME280;66145;45.188;5.712;2023-04-06T07:22:05;99532.22;;;21.06;38.52
54306;BME280;66145;45.188;5.712;2023-04-06T07:24:31;99516.03;;;20.87;38.75
54306;BME280;66145;45.188;5.712;2023-04-06T07:26:58;99511.34;;;20.78;38.71
54306;BME280;66145;45.188;5.712;2023-04-06T07:29:24;99532.22;;;20.88;38.85
54306;BME280;66145;45.188;5.712;2023-04-06T07:31:49;99501.09;;;20.70;38.99
54306;BME280;66145;45.188;5.712;2023-04-06T07:34:15;99531.72;;;20.86;38.49
54306;BME280;66145;45.188;5.712;2023-04-06T07:36:40;99488.00;;;20.58;38.44
54306;BME280;66145;45.188;5.712;2023-04-06T07:39:07;99526.56;;;20.85;38.46
54306;BME280;66145;45.188;5.712;2023-04-06T07:41:32;99508.59;;;20.78;38.52
54306;BME280;66145;45.188;5.712;2023-04-06T07:43:57;99525.09;;;20.87;38.62
54306;BME280;66145;45.188;5.712;2023-04-06T07:46:23;99498.84;;;20.72;38.25
54306;BME280;66145;45.188;5.712;2023-04-06T07:48:48;99495.94;;;20.69;38.48
54306;BME280;66145;45.188;5.712;2023-04-06T07:51:15;99500.16;;;20.75;38.17
54306;BME280;66145;45.188;5.712;2023-04-06T07:53:41;99470.38;;;20.50;38.18
54306;BME280;66145;45.188;5.712;2023-04-06T07:56:06;99502.41;;;20.73;38.39
54306;BME280;66145;45.188;5.712;2023-04-06T07:58:32;99533.34;;;20.87;38.24
54306;BME280;66145;45.188;5.712;2023-04-06T08:00:57;99492.69;;;20.58;38.44
54306;BME280;66145;45.188;5.712;2023-04-06T08:03:23;99531.38;;;20.79;38.48
54306;BME280;66145;45.188;5.712;2023-04-06T08:05:51;99529.41;;;20.71;38.43
54306;BME280;66145;45.188;5.712;2023-04-06T08:08:17;99484.41;;;20.40;38.51
54306;BME280;66145;45.188;5.712;2023-04-06T08:10:43;99520.66;;;20.60;38.82
54306;BME280;66145;45.188;5.712;2023-04-06T08:13:09;99525.03;;;20.70;38.50
54306;BME280;66145;45.188;5.712;2023-04-06T08:15:35;99525.03;;;20.70;38.30
54306;BME280;66145;45.188;5.712;2023-04-06T08:18:00;99529.41;;;20.71;38.33
54306;BME280;66145;45.188;5.712;2023-04-06T08:20:26;99527.34;;;20.76;38.34
54306;BME280;66145;45.188;5.712;2023-04-06T08:22:51;99524.06;;;20.74;38.30
54306;BME280;66145;45.188;5.712;2023-04-06T08:25:16;99502.38;;;20.55;38.66
54306;BME280;66145;45.188;5.712;2023-04-06T08:27:42;99483.13;;;20.46;38.54
54306;BME280;66145;45.188;5.712;2023-04-06T08:30:07;99528.97;;;20.77;38.35
54306;BME280;66145;45.188;5.712;2023-04-06T08:32:33;99529.28;;;20.76;38.65
54306;BME280;66145;45.188;5.712;2023-04-06T08:34:58;99517.75;;;20.65;38.92
54306;BME280;66145;45.188;5.712;2023-04-06T08:37:24;99505.13;;;20.55;38.79
54306;BME280;66145;45.188;5.712;2023-04-06T08:39:50;99488.47;;;20.43;38.61
54306;BME280;66145;45.188;5.712;2023-04-06T08:42:20;99526.63;;;20.62;38.83
54306;BME280;66145;45.188;5.712;2023-04-06T08:44:48;99523.75;;;20.67;38.62
54306;BME280;66145;45.188;5.712;2023-04-06T08:47:13;99530.88;;;20.68;38.71
54306;BME280;66145;45.188;5.712;2023-04-06T08:49:40;99515.31;;;20.63;38.56
54306;BME280;66145;45.188;5.712;2023-04-06T08:52:10;99522.28;;;20.70;38.63
54306;BME280;66145;45.188;5.712;2023-04-06T08:54:37;99526.31;;;20.72;38.42
54306;BME280;66145;45.188;5.712;2023-04-06T08:57:04;99500.13;;;20.66;38.38
54306;BME280;66145;45.188;5.712;2023-04-06T08:59:30;99522.00;;;20.80;38.26
54306;BME280;66145;45.188;5.712;2023-04-06T09:01:56;99510.94;;;20.62;38.39
54306;BME280;66145;45.188;5.712;2023-04-06T09:04:22;99522.97;;;20.75;38.10
54306;BME280;66145;45.188;5.712;2023-04-06T09:06:47;99474.72;;;20.43;38.21
54306;BME280;66145;45.188;5.712;2023-04-06T09:09:12;99493.66;;;20.53;38.69
54306;BME280;66145;45.188;5.712;2023-04-06T09:11:48;99498.78;;;20.46;38.48
54306;BME280;66145;45.188;5.712;2023-04-06T09:14:14;99482.94;;;20.34;38.69
54306;BME280;66145;45.188;5.712;2023-04-06T09:16:41;99490.69;;;20.32;38.62
54306;BME280;66145;45.188;5.712;2023-04-06T09:19:08;99490.22;;;20.39;38.47
54306;BME280;66145;45.188;5.712;2023-04-06T09:21:34;99480.50;;;20.32;38.45
54306;BME280;66145;45.188;5.712;2023-04-06T09:24:01;99486.97;;;20.36;38.43
54306;BME280;66145;45.188;5.712;2023-04-06T09:26:27;99463.38;;;20.27;38.65
54306;BME280;66145;45.188;5.712;2023-04-06T09:28:54;99447.84;;;20.22;38.39
54306;BME280;66145;45.188;5.712;2023-04-06T09:31:26;99479.56;;;20.46;38.32
54306;BME280;66145;45.188;5.712;2023-04-06T09:33:52;99508.38;;;20.66;38.48
54306;BME280;66145;45.188;5.712;2023-04-06T09:36:18;99473.75;;;20.47;38.55
54306;BME280;66145;45.188;5.712;2023-04-06T09:38:58;99481.00;;;20.43;38.49
54306;BME280;66145;45.188;5.712;2023-04-06T09:41:51;99501.25;;;20.56;38.45
54306;BME280;66145;45.188;5.712;2023-04-06T09:44:16;99501.88;;;20.53;38.65
54306;BME280;66145;45.188;5.712;2023-04-06T09:46:43;99502.84;;;20.48;38.76
54306;BME280;66145;45.188;5.712;2023-04-06T09:49:10;99458.66;;;20.18;38.78
54306;BME280;66145;45.188;5.712;2023-04-06T09:51:41;99438.09;;;20.07;38.80
54306;BME280;66145;45.188;5.712;2023-04-06T09:54:11;99490.22;;;20.39;38.96
54306;BME280;66145;45.188;5.712;2023-04-06T09:56:46;99437.16;;;20.03;38.92
54306;BME280;66145;45.188;5.712;2023-04-06T09:59:25;99466.09;;;20.18;39.00
54306;BME280;66145;45.188;5.712;2023-04-06T10:01:55;99478.75;;;20.36;38.88
54306;BME280;66145;45.188;5.712;2023-04-06T10:04:40;99429.88;;;20.07;38.96
54306;BME280;66145;45.188;5.712;2023-04-06T10:07:09;99455.25;;;20.21;38.84
54306;BME280;66145;45.188;5.712;2023-04-06T10:09:37;99482.78;;;20.39;39.30
54306;BME280;66145;45.188;5.712;2023-04-06T10:12:04;99409.31;;;19.87;39.09
54306;BME280;66145;45.188;5.712;2023-04-06T10:14:32;99475.34;;;20.31;38.81
54306;BME280;66145;45.188;5.712;2023-04-06T10:16:58;99473.72;;;20.30;38.71
54306;BME280;66145;45.188;5.712;2023-04-06T10:19:27;99461.91;;;20.20;39.07
54306;BME280;66145;45.188;5.712;2023-04-06T10:21:56;99462.56;;;20.26;38.92
54306;BME280;66145;45.188;5.712;2023-04-06T10:24:23;99459.47;;;20.19;38.79
54306;BME280;66145;45.188;5.712;2023-04-06T10:27:02;99436.31;;;20.02;38.78
54306;BME280;66145;45.188;5.712;2023-04-06T10:29:27;99468.06;;;20.26;38.94
54306;BME280;66145;45.188;5.712;2023-04-06T10:31:53;99469.84;;;20.31;38.69
54306;BME280;66145;45.188;5.712;2023-04-06T10:34:20;99477.44;;;20.34;38.58
54306;BME280;66145;45.188;5.712;2023-04-06T10:36:46;99437.34;;;20.15;38.76
54306;BME280;66145;45.188;5.712;2023-04-06T10:39:11;99455.25;;;20.21;38.49
54306;BME280;66145;45.188;5.712;2023-04-06T10:41:42;99445.53;;;20.06;38.65
54306;BME280;66145;45.188;5.712;2023-04-06T10:44:07;99458.97;;;20.17;38.65
54306;BME280;66145;45.188;5.712;2023-04-06T10:46:33;99465.13;;;20.23;38.67
54306;BME280;66145;45.188;5.712;2023-04-06T10:49:11;99426.16;;;20.03;38.66
54306;BME280;66145;45.188;5.712;2023-04-06T10:51:38;99458.66;;;20.18;38.98
54306;BME280;66145;45.188;5.712;2023-04-06T10:54:05;99440.88;;;20.16;38.88
54306;BME280;66145;45.188;5.712;2023-04-06T10:56:32;99454.13;;;20.23;38.77
54306;BME280;66145;45.188;5.712;2023-04-06T10:58:59;99437.00;;;20.17;38.63
54306;BME280;66145;45.188;5.712;2023-04-06T11:01:25;99436.88;;;20.22;38.69
54306;BME280;66145;45.188;5.712;2023-04-06T11:03:54;99412.75;;;20.10;38.75
54306;BME280;66145;45.188;5.712;2023-04-06T11:06:24;99433.47;;;20.25;38.73
54306;BME280;66145;45.188;5.712;2023-04-06T11:08:51;99432.03;;;20.28;38.55
54306;BME280;66145;45.188;5.712;2023-04-06T11:11:18;99432.34;;;20.26;38.72
54306;BME280;66145;45.188;5.712;2023-04-06T11:13:44;99434.28;;;20.26;38.83
54306;BME280;66145;45.188;5.712;2023-04-06T11:16:21;99414.38;;;20.11;38.62
54306;BME280;66145;45.188;5.712;2023-04-06T11:21:20;99420.53;;;20.17;38.87
54306;BME280;66145;45.188;5.712;2023-04-06T11:24:16;99399.00;;;20.01;38.90
54306;BME280;66145;45.188;5.712;2023-04-06T11:26:48;99416.00;;;20.21;39.07
54306;BME280;66145;45.188;5.712;2023-04-06T11:29:17;99389.00;;;20.05;39.03
54306;BME280;66145;45.188;5.712;2023-04-06T11:31:47;99421.38;;;20.26;38.86
54306;BME280;66145;45.188;5.712;2023-04-06T11:34:19;99411.81;;;20.24;38.83
54306;BME280;66145;45.188;5.712;2023-04-06T11:36:46;99389.16;;;20.09;39.03
54306;BME280;66145;45.188;5.712;2023-04-06T11:39:13;99414.41;;;20.20;39.28
54306;BME280;66145;45.188;5.712;2023-04-06T11:41:39;99390.13;;;20.04;39.22
54306;BME280;66145;45.188;5.712;2023-04-06T11:44:05;99416.16;;;20.16;39.50
54306;BME280;66145;45.188;5.712;2023-04-06T11:46:31;99396.13;;;20.15;39.44
54306;BME280;66145;45.188;5.712;2023-04-06T11:49:00;99390.16;;;20.13;39.24
54306;BME280;66145;45.188;5.712;2023-04-06T11:51:26;99343.22;;;19.83;39.56
54306;BME280;66145;45.188;5.712;2023-04-06T11:53:52;99324.78;;;19.75;39.00
54306;BME280;66145;45.188;5.712;2023-04-06T11:56:29;99377.41;;;20.17;39.44
54306;BME280;66145;45.188;5.712;2023-04-06T11:58:56;99299.78;;;19.68;39.41
54306;BME280;66145;45.188;5.712;2023-04-06T12:01:22;99377.56;;;20.21;39.04
54306;BME280;66145;45.188;5.712;2023-04-06T12:03:47;99326.00;;;19.91;39.54
54306;BME280;66145;45.188;5.712;2023-04-06T12:06:13;99347.34;;;20.03;39.13
54306;BME280;66145;45.188;5.712;2023-04-06T12:08:38;99350.56;;;20.05;39.47
54306;BME280;66145;45.188;5.712;2023-04-06T12:11:04;99329.84;;;19.90;39.54
54306;BME280;66145;45.188;5.712;2023-04-06T12:13:30;99364.16;;;20.11;39.88
54306;BME280;66145;45.188;5.712;2023-04-06T12:15:55;99351.06;;;20.08;39.60
54306;BME280;66145;45.188;5.712;2023-04-06T12:18:20;99340.22;;;19.94;39.49
54306;BME280;66145;45.188;5.712;2023-04-06T12:20:46;99324.56;;;19.94;39.55
54306;BME280;66145;45.188;5.712;2023-04-06T12:23:11;99344.72;;;19.98;39.75
54306;BME280;66145;45.188;5.712;2023-04-06T12:25:39;99357.38;;;20.17;39.36
54306;BME280;66145;45.188;5.712;2023-04-06T12:28:05;99330.84;;;20.03;39.38
54306;BME280;66145;45.188;5.712;2023-04-06T12:30:31;99331.19;;;20.02;39.46
54306;BME280;66145;45.188;5.712;2023-04-06T12:32:57;99343.13;;;20.06;39.60
54306;BME280;66145;45.188;5.712;2023-04-06T12:35:23;99321.63;;;19.90;39.23
54306;BME280;66145;45.188;5.712;2023-04-06T12:37:48;99359.31;;;20.08;39.39
54306;BME280;66145;45.188;5.712;2023-04-06T12:40:13;99371.56;;;20.10;39.45
54306;BME280;66145;45.188;5.712;2023-04-06T12:42:40;99369.47;;;20.07;39.83
54306;BME280;66145;45.188;5.712;2023-04-06T12:45:07;99361.06;;;20.03;39.68
54306;BME280;66145;45.188;5.712;2023-04-06T12:47:33;99332.59;;;19.90;39.48
54306;BME280;66145;45.188;5.712;2023-04-06T12:49:58;99362.34;;;20.06;39.56
54306;BME280;66145;45.188;5.712;2023-04-06T12:52:23;99341.22;;;20.06;39.42
54306;BME280;66145;45.188;5.712;2023-04-06T12:54:49;99352.34;;;20.10;39.30
54306;BME280;66145;45.188;5.712;2023-04-06T12:57:14;99355.44;;;20.17;39.22